Time;durP1;ratioP1;P1;durP2;ratioP2;P2;SDS_P1;SDS_P2;PMS_P1;PMS_P2;Temp;Humidity;BMP_temperature;BMP_pressure;BME280_temperature;BME280_humidity;BME280_pressure;Samples;Min_cycle;Max_cycle;Signal;HPM_P1;HPM_P2
2022/01/30 00:01:33;;;;;;;60.35;18.38;;;;;;;;;;6247358;22;20026;-81
2022/01/30 00:03:59;;;;;;;62.53;18.05;;;;;;;;;;6219143;23;20004;-80
2022/01/30 00:06:24;;;;;;;58.22;18.75;;;;;;;;;;6195313;22;20359;-80
2022/01/30 00:08:50;;;;;;;53.70;16.85;;;;;;;;;;6193859;23;20027;-80
2022/01/30 00:11:21;;;;;;;46.92;17.25;;;;;;;;;;6245720;23;20063;-80
2022/01/30 00:13:46;;;;;;;48.10;16.75;;;;;;;;;;6198119;23;20008;-80
2022/01/30 00:16:15;;;;;;;56.88;18.20;;;;;;;;;;6270473;22;20000;-80
2022/01/30 00:21:22;;;;;;;66.15;20.63;;;;;;;;;;6220668;23;20008;-80
2022/01/30 00:23:54;;;;;;;65.38;19.20;;;;;;;;;;6249986;22;20011;-80
2022/01/30 00:26:20;;;;;;;52.97;17.63;;;;;;;;;;6226823;22;20016;-80
2022/01/30 00:28:46;;;;;;;67.50;21.05;;;;;;;;;;6249454;22;20000;-80
2022/01/30 00:31:19;;;;;;;81.78;23.17;;;;;;;;;;6275320;22;20019;-80
2022/01/30 00:33:45;;;;;;;134.43;32.30;;;;;;;;;;6251878;22;20012;-80
2022/01/30 00:36:10;;;;;;;153.10;35.95;;;;;;;;;;6267555;22;20000;-80
2022/01/30 00:38:35;;;;;;;175.43;38.70;;;;;;;;;;6275872;22;20034;-80
2022/01/30 00:41:01;;;;;;;229.13;49.65;;;;;;;;;;6249255;22;19995;-81
2022/01/30 00:43:26;;;;;;;290.85;60.55;;;;;;;;;;6276010;22;20003;-80
2022/01/30 00:45:52;;;;;;;297.98;58.47;;;;;;;;;;6274551;22;20004;-80
2022/01/30 00:48:17;;;;;;;266.88;54.15;;;;;;;;;;6274901;22;19999;-80
2022/01/30 00:50:43;;;;;;;256.60;50.80;;;;;;;;;;6224053;22;20039;-80
2022/01/30 00:53:08;;;;;;;236.85;47.20;;;;;;;;;;6249072;22;20394;-81
2022/01/30 00:55:34;;;;;;;157.00;33.40;;;;;;;;;;6275064;22;20015;-81
2022/01/30 00:58:00;;;;;;;188.05;37.88;;;;;;;;;;6249028;22;20427;-81
2022/01/30 01:00:26;;;;;;;110.75;26.67;;;;;;;;;;6248933;22;20003;-80
2022/01/30 01:02:52;;;;;;;65.28;16.45;;;;;;;;;;6248996;22;20086;-80
2022/01/30 01:05:17;;;;;;;49.90;13.98;;;;;;;;;;6248981;22;20008;-80
2022/01/30 01:07:46;;;;;;;38.85;12.68;;;;;;;;;;6274854;22;19999;-80
2022/01/30 01:10:23;;;;;;;30.15;11.85;;;;;;;;;;6249757;22;20058;-80
2022/01/30 01:25:51;;;;;;;35.60;12.05;;;;;;;;;;6249232;22;20003;-80
2022/01/30 01:28:17;;;;;;;38.15;12.52;;;;;;;;;;6274216;22;20090;-80
2022/01/30 01:30:42;;;;;;;26.77;10.18;;;;;;;;;;6248911;22;20038;-80
2022/01/30 01:33:08;;;;;;;30.45;11.50;;;;;;;;;;6223897;22;20058;-80
2022/01/30 01:35:33;;;;;;;31.40;11.18;;;;;;;;;;6225515;22;20018;-80
2022/01/30 01:37:59;;;;;;;31.75;10.18;;;;;;;;;;6249325;22;20095;-81
2022/01/30 01:40:24;;;;;;;33.83;11.15;;;;;;;;;;6251152;22;20059;-81
2022/01/30 01:42:50;;;;;;;35.50;13.45;;;;;;;;;;6296194;22;20087;-81
2022/01/30 01:45:19;;;;;;;33.10;11.70;;;;;;;;;;6274326;22;20435;-81
2022/01/30 01:47:45;;;;;;;32.25;11.73;;;;;;;;;;6276014;22;20004;-81
2022/01/30 01:50:17;;;;;;;41.95;13.40;;;;;;;;;;6223664;22;20014;-80
2022/01/30 01:52:43;;;;;;;49.13;12.07;;;;;;;;;;6226808;22;20003;-81
2022/01/30 01:55:08;;;;;;;40.47;9.68;;;;;;;;;;6275809;22;20006;-80
2022/01/30 01:57:34;;;;;;;46.38;10.95;;;;;;;;;;6250248;22;20000;-80
2022/01/30 02:00:00;;;;;;;33.97;10.55;;;;;;;;;;6274104;22;20453;-80
2022/01/30 02:02:27;;;;;;;25.30;10.20;;;;;;;;;;6248705;22;19999;-80
2022/01/30 02:04:52;;;;;;;37.58;10.23;;;;;;;;;;6247775;22;20486;-80
2022/01/30 02:08:06;;;;;;;25.85;9.48;;;;;;;;;;6248543;22;20004;-80
2022/01/30 02:10:05;;;;;;;25.85;9.60;;;;;;;;;;6273379;22;20007;-79
2022/01/30 02:12:41;;;;;;;28.10;9.38;;;;;;;;;;6274155;22;20090;-80
2022/01/30 02:23:58;;;;;;;32.13;10.95;;;;;;;;;;6255098;22;20026;-80
2022/01/30 02:26:16;;;;;;;29.45;10.15;;;;;;;;;;6273960;22;20011;-80
2022/01/30 02:28:41;;;;;;;29.33;9.73;;;;;;;;;;6248380;22;19995;-80
2022/01/30 02:31:11;;;;;;;32.28;10.48;;;;;;;;;;6274205;22;20053;-80
2022/01/30 02:33:39;;;;;;;26.73;9.48;;;;;;;;;;6225460;22;20000;-79
2022/01/30 02:36:04;;;;;;;25.67;8.38;;;;;;;;;;6274500;22;19995;-81
2022/01/30 02:38:30;;;;;;;30.33;8.18;;;;;;;;;;6274632;22;20437;-80
2022/01/30 02:40:57;;;;;;;29.70;9.77;;;;;;;;;;6224831;22;20351;-81
2022/01/30 02:43:29;;;;;;;26.98;9.50;;;;;;;;;;6223903;22;19996;-80
2022/01/30 02:46:23;;;;;;;26.73;8.70;;;;;;;;;;6274267;22;20014;-81
2022/01/30 02:48:53;;;;;;;27.33;8.90;;;;;;;;;;6249121;22;20394;-80
2022/01/30 02:51:21;;;;;;;30.58;9.98;;;;;;;;;;6249137;22;20010;-80
2022/01/30 02:53:55;;;;;;;20.50;8.38;;;;;;;;;;6218545;23;20008;-80
2022/01/30 02:56:21;;;;;;;25.33;9.90;;;;;;;;;;6243239;22;20004;-81
2022/01/30 02:58:47;;;;;;;28.58;10.43;;;;;;;;;;6273575;22;20332;-81
2022/01/30 03:01:12;;;;;;;25.55;9.25;;;;;;;;;;6252387;22;20038;-81
2022/01/30 03:03:37;;;;;;;24.45;8.75;;;;;;;;;;6275839;22;21958;-81
2022/01/30 03:06:03;;;;;;;20.30;7.78;;;;;;;;;;6275243;22;20067;-82
2022/01/30 03:08:28;;;;;;;23.77;9.35;;;;;;;;;;6273704;22;20006;-83
2022/01/30 03:10:54;;;;;;;20.05;8.00;;;;;;;;;;6247860;22;20347;-81
2022/01/30 03:13:19;;;;;;;25.77;9.35;;;;;;;;;;6248255;22;19999;-80
2022/01/30 03:15:45;;;;;;;21.90;8.00;;;;;;;;;;6222824;22;20413;-81
2022/01/30 03:18:10;;;;;;;22.88;8.57;;;;;;;;;;6273258;22;20076;-81
2022/01/30 03:20:36;;;;;;;24.88;8.48;;;;;;;;;;6223691;22;20003;-81
2022/01/30 03:23:02;;;;;;;26.10;9.10;;;;;;;;;;6276305;22;20003;-80
2022/01/30 03:25:30;;;;;;;21.33;8.15;;;;;;;;;;6248731;22;20054;-81
2022/01/30 03:27:55;;;;;;;23.75;8.15;;;;;;;;;;6248667;22;20004;-82
2022/01/30 03:30:27;;;;;;;24.38;9.10;;;;;;;;;;6274645;22;20060;-82
2022/01/30 03:32:53;;;;;;;19.23;7.10;;;;;;;;;;6273732;22;20074;-79
2022/01/30 03:35:18;;;;;;;27.27;8.05;;;;;;;;;;6274844;22;20014;-79
2022/01/30 03:37:45;;;;;;;25.05;8.27;;;;;;;;;;6248179;22;20410;-80
2022/01/30 03:40:11;;;;;;;22.98;8.30;;;;;;;;;;6273462;22;20034;-81
2022/01/30 03:42:36;;;;;;;23.38;8.20;;;;;;;;;;6273326;22;20039;-80
2022/01/30 03:45:02;;;;;;;22.88;8.40;;;;;;;;;;6248486;22;20011;-80
2022/01/30 03:47:28;;;;;;;20.83;6.90;;;;;;;;;;6254482;22;20004;-79
2022/01/30 03:49:53;;;;;;;24.80;9.23;;;;;;;;;;6274932;22;20027;-79
2022/01/30 03:52:19;;;;;;;23.23;8.93;;;;;;;;;;6274861;22;20050;-80
2022/01/30 03:54:45;;;;;;;24.88;8.82;;;;;;;;;;6274704;22;20010;-80
2022/01/30 03:57:10;;;;;;;23.08;8.80;;;;;;;;;;6248512;22;20008;-80
2022/01/30 03:59:36;;;;;;;23.83;8.25;;;;;;;;;;6275990;22;20622;-80
2022/01/30 04:02:02;;;;;;;23.33;8.50;;;;;;;;;;6274248;22;20006;-79
2022/01/30 04:04:27;;;;;;;24.50;8.73;;;;;;;;;;6225465;22;20047;-80
2022/01/30 04:07:00;;;;;;;23.63;8.27;;;;;;;;;;6277217;22;20004;-80
2022/01/30 04:09:26;;;;;;;27.33;8.57;;;;;;;;;;6251909;22;20000;-82
2022/01/30 04:11:52;;;;;;;18.42;7.68;;;;;;;;;;6275877;22;20450;-80
2022/01/30 04:14:17;;;;;;;25.60;8.27;;;;;;;;;;6273426;22;20008;-80
2022/01/30 04:16:43;;;;;;;31.90;11.07;;;;;;;;;;6247700;22;20000;-80
2022/01/30 04:19:09;;;;;;;34.72;11.20;;;;;;;;;;6273164;22;19999;-80
2022/01/30 04:21:34;;;;;;;46.92;13.80;;;;;;;;;;6273450;22;20008;-81
2022/01/30 04:24:00;;;;;;;51.53;13.93;;;;;;;;;;6274818;22;19999;-80
2022/01/30 04:26:25;;;;;;;67.15;14.27;;;;;;;;;;6277966;22;20082;-81
2022/01/30 04:28:51;;;;;;;60.17;13.90;;;;;;;;;;6279907;22;20000;-83
2022/01/30 04:31:17;;;;;;;63.80;14.05;;;;;;;;;;6277412;22;20053;-80
2022/01/30 04:33:43;;;;;;;58.47;14.18;;;;;;;;;;6276660;22;20086;-79
2022/01/30 04:36:12;;;;;;;58.60;14.57;;;;;;;;;;6270570;22;20003;-80
2022/01/30 04:52:46;;;;;;;18.42;6.95;;;;;;;;;;6253461;22;20101;-81
2022/01/30 05:08:28;;;;;;;14.93;5.88;;;;;;;;;;6281806;22;20085;-81
2022/01/30 05:10:54;;;;;;;17.20;5.47;;;;;;;;;;6253838;22;20008;-79
2022/01/30 05:13:22;;;;;;;20.23;6.25;;;;;;;;;;6250145;22;20083;-82
2022/01/30 05:15:47;;;;;;;16.25;5.57;;;;;;;;;;6252748;22;20423;-80
2022/01/30 05:18:17;;;;;;;24.40;7.10;;;;;;;;;;6250870;22;19995;-81
2022/01/30 05:20:43;;;;;;;19.90;7.13;;;;;;;;;;6249324;22;20004;-80
2022/01/30 05:23:09;;;;;;;18.83;5.43;;;;;;;;;;6274640;22;20074;-80
2022/01/30 05:25:34;;;;;;;16.60;5.28;;;;;;;;;;6274439;22;20013;-80
2022/01/30 05:28:00;;;;;;;16.20;5.20;;;;;;;;;;6250953;22;20056;-80
2022/01/30 05:30:26;;;;;;;16.05;5.00;;;;;;;;;;6256355;22;20008;-80
2022/01/30 05:32:51;;;;;;;11.57;4.00;;;;;;;;;;6275575;22;20065;-81
2022/01/30 05:35:17;;;;;;;10.90;3.95;;;;;;;;;;6277617;22;20397;-80
2022/01/30 05:37:43;;;;;;;13.93;3.80;;;;;;;;;;6249841;22;20000;-80
2022/01/30 05:40:09;;;;;;;10.60;4.05;;;;;;;;;;6248636;22;20447;-80
2022/01/30 05:47:51;;;;;;;16.17;4.75;;;;;;;;;;6249092;22;20000;-81
2022/01/30 05:50:17;;;;;;;13.10;4.75;;;;;;;;;;6275178;22;20004;-81
2022/01/30 05:52:43;;;;;;;9.60;3.72;;;;;;;;;;6279387;22;20484;-80
2022/01/30 05:55:08;;;;;;;9.00;4.03;;;;;;;;;;6249655;22;20008;-81
2022/01/30 05:57:34;;;;;;;11.07;3.72;;;;;;;;;;6273979;22;20007;-82
2022/01/30 05:59:59;;;;;;;11.05;4.20;;;;;;;;;;6274494;22;20004;-83
2022/01/30 06:02:25;;;;;;;9.27;4.20;;;;;;;;;;6276429;22;20061;-81
2022/01/30 06:04:50;;;;;;;12.68;4.38;;;;;;;;;;6274060;22;20007;-81
2022/01/30 06:07:16;;;;;;;14.80;4.20;;;;;;;;;;6248542;22;20006;-81
2022/01/30 06:09:41;;;;;;;12.30;4.50;;;;;;;;;;6278444;22;20004;-81
2022/01/30 06:12:07;;;;;;;13.65;4.18;;;;;;;;;;6278976;22;20003;-80
2022/01/30 06:14:33;;;;;;;12.65;4.32;;;;;;;;;;6281906;22;20003;-82
2022/01/30 06:16:58;;;;;;;15.88;4.57;;;;;;;;;;6250613;22;20010;-81
2022/01/30 06:19:25;;;;;;;14.50;4.93;;;;;;;;;;6276183;22;20022;-81
2022/01/30 06:21:52;;;;;;;22.30;6.10;;;;;;;;;;6249565;22;20012;-81
2022/01/30 06:24:17;;;;;;;15.95;5.50;;;;;;;;;;6228280;22;20420;-81
2022/01/30 06:26:43;;;;;;;16.77;5.25;;;;;;;;;;6224858;22;20083;-81
2022/01/30 06:29:08;;;;;;;13.23;5.15;;;;;;;;;;6278191;22;20004;-81
2022/01/30 06:31:34;;;;;;;14.75;5.03;;;;;;;;;;6225619;22;20011;-81
2022/01/30 06:33:59;;;;;;;16.10;5.68;;;;;;;;;;6278086;22;20000;-81
2022/01/30 06:36:25;;;;;;;13.35;5.82;;;;;;;;;;6226256;22;20042;-81
2022/01/30 06:38:52;;;;;;;19.60;5.63;;;;;;;;;;6249272;22;20038;-81
2022/01/30 06:41:18;;;;;;;16.80;6.28;;;;;;;;;;6274221;22;20008;-81
2022/01/30 06:43:43;;;;;;;17.02;5.85;;;;;;;;;;6273950;22;20002;-82
2022/01/30 06:46:11;;;;;;;23.65;7.10;;;;;;;;;;6248443;22;20026;-80
2022/01/30 06:48:36;;;;;;;18.25;5.55;;;;;;;;;;6224498;22;20000;-81
2022/01/30 06:51:02;;;;;;;18.10;7.53;;;;;;;;;;6273409;22;20346;-80
2022/01/30 06:53:27;;;;;;;20.75;7.80;;;;;;;;;;6223700;22;20090;-80
2022/01/30 06:55:53;;;;;;;18.05;7.28;;;;;;;;;;6275912;22;20003;-80
2022/01/30 06:58:18;;;;;;;18.20;6.45;;;;;;;;;;6278316;22;20047;-80
2022/01/30 07:00:44;;;;;;;15.57;6.63;;;;;;;;;;6275950;22;20010;-81
2022/01/30 07:03:09;;;;;;;29.67;9.70;;;;;;;;;;6274611;22;20000;-81
2022/01/30 07:05:35;;;;;;;24.13;8.43;;;;;;;;;;6248270;22;20008;-81
2022/01/30 07:08:00;;;;;;;16.63;5.40;;;;;;;;;;6278112;22;20354;-82
2022/01/30 07:10:26;;;;;;;18.95;6.50;;;;;;;;;;6276419;22;19999;-82
2022/01/30 07:12:51;;;;;;;17.75;6.15;;;;;;;;;;6277059;22;20280;-82
2022/01/30 07:15:17;;;;;;;25.73;8.40;;;;;;;;;;6277815;22;20146;-81
2022/01/30 07:17:42;;;;;;;15.52;5.75;;;;;;;;;;6283699;22;20430;-81
2022/01/30 07:20:08;;;;;;;14.80;5.32;;;;;;;;;;6251022;22;20004;-81
2022/01/30 07:22:34;;;;;;;14.85;6.15;;;;;;;;;;6249100;22;20007;-81
2022/01/30 07:24:59;;;;;;;14.30;6.22;;;;;;;;;;6275528;22;20008;-82
2022/01/30 07:27:25;;;;;;;20.60;5.72;;;;;;;;;;6274201;22;20457;-80
2022/01/30 07:29:50;;;;;;;18.90;6.18;;;;;;;;;;6278508;22;20004;-80
2022/01/30 07:32:16;;;;;;;14.02;5.43;;;;;;;;;;6292657;22;20334;-80
2022/01/30 07:34:42;;;;;;;19.38;7.25;;;;;;;;;;6277342;22;20439;-80
2022/01/30 07:37:08;;;;;;;23.85;6.40;;;;;;;;;;6275898;22;20065;-80
2022/01/30 07:39:36;;;;;;;21.00;6.32;;;;;;;;;;6259543;22;20020;-82
2022/01/30 07:42:02;;;;;;;21.65;7.78;;;;;;;;;;6250327;22;20081;-80
2022/01/30 07:44:27;;;;;;;33.38;10.98;;;;;;;;;;6274499;22;20012;-81
2022/01/30 07:46:53;;;;;;;38.80;13.02;;;;;;;;;;6278413;22;20022;-82
2022/01/30 07:49:18;;;;;;;26.08;9.60;;;;;;;;;;6279304;22;20033;-83
2022/01/30 07:51:44;;;;;;;27.60;9.82;;;;;;;;;;6278549;22;20343;-82
2022/01/30 07:54:09;;;;;;;28.40;10.68;;;;;;;;;;6250139;22;20008;-82
2022/01/30 07:56:35;;;;;;;24.45;8.82;;;;;;;;;;6278908;22;20087;-81
2022/01/30 07:59:00;;;;;;;25.73;8.20;;;;;;;;;;6230131;22;20043;-82
2022/01/30 08:01:25;;;;;;;17.00;6.32;;;;;;;;;;6287996;22;19999;-83
2022/01/30 08:03:51;;;;;;;21.33;6.10;;;;;;;;;;6276511;22;20004;-81
2022/01/30 08:06:17;;;;;;;26.70;8.57;;;;;;;;;;6277689;22;20004;-82
2022/01/30 08:08:42;;;;;;;26.25;7.82;;;;;;;;;;6283042;22;20033;-82
2022/01/30 08:11:09;;;;;;;14.35;5.40;;;;;;;;;;6285175;22;20027;-83
2022/01/30 08:13:35;;;;;;;17.85;5.70;;;;;;;;;;6257560;22;20014;-81
2022/01/30 08:16:00;;;;;;;25.02;7.03;;;;;;;;;;6256536;22;20004;-83
2022/01/30 08:18:26;;;;;;;16.58;5.82;;;;;;;;;;6279746;22;20099;-82
2022/01/30 08:20:51;;;;;;;21.08;6.10;;;;;;;;;;6279135;22;20049;-83
2022/01/30 08:23:19;;;;;;;22.17;6.05;;;;;;;;;;6260935;22;20058;-83
2022/01/30 08:25:44;;;;;;;23.27;6.05;;;;;;;;;;6281316;22;20069;-82
2022/01/30 08:28:10;;;;;;;17.73;6.07;;;;;;;;;;6282548;22;20003;-83
2022/01/30 08:30:35;;;;;;;19.98;6.50;;;;;;;;;;6286157;22;20000;-85
2022/01/30 08:33:02;;;;;;;20.55;7.82;;;;;;;;;;6286264;22;20003;-82
2022/01/30 08:35:28;;;;;;;20.10;7.45;;;;;;;;;;6284654;22;20007;-82
2022/01/30 08:37:53;;;;;;;25.33;8.00;;;;;;;;;;6282479;22;20129;-82
2022/01/30 08:40:19;;;;;;;24.13;9.18;;;;;;;;;;6285178;22;20000;-83
2022/01/30 08:42:46;;;;;;;23.13;8.70;;;;;;;;;;6263901;22;20004;-84
2022/01/30 08:45:12;;;;;;;23.95;8.98;;;;;;;;;;6285742;22;20419;-83
2022/01/30 08:47:39;;;;;;;35.50;9.88;;;;;;;;;;6285208;22;20008;-83
2022/01/30 08:50:05;;;;;;;26.23;8.70;;;;;;;;;;6285770;22;19999;-82
2022/01/30 08:52:30;;;;;;;32.55;9.90;;;;;;;;;;6284825;22;20015;-82
2022/01/30 08:54:56;;;;;;;24.90;8.52;;;;;;;;;;6254881;22;20049;-83
2022/01/30 08:57:21;;;;;;;22.75;8.60;;;;;;;;;;6284460;22;20003;-82
2022/01/30 08:59:47;;;;;;;31.40;8.88;;;;;;;;;;6254411;22;19999;-83
2022/01/30 09:02:13;;;;;;;23.88;9.45;;;;;;;;;;6279188;22;20316;-81
2022/01/30 09:04:38;;;;;;;52.17;16.05;;;;;;;;;;6255147;22;20007;-82
2022/01/30 09:07:04;;;;;;;49.90;16.15;;;;;;;;;;6286339;22;20323;-83
2022/01/30 09:09:32;;;;;;;51.67;16.20;;;;;;;;;;6283934;22;20041;-82
2022/01/30 09:11:58;;;;;;;67.00;22.30;;;;;;;;;;6259486;22;20007;-82
2022/01/30 09:14:27;;;;;;;53.85;18.00;;;;;;;;;;6233507;22;20059;-82
2022/01/30 09:16:52;;;;;;;48.20;14.23;;;;;;;;;;6282206;22;20010;-83
2022/01/30 09:19:18;;;;;;;84.47;20.58;;;;;;;;;;6232335;22;20086;-82
2022/01/30 09:21:43;;;;;;;106.72;24.75;;;;;;;;;;6252429;22;20008;-85
2022/01/30 09:24:09;;;;;;;56.00;14.40;;;;;;;;;;6253299;22;20063;-83
2022/01/30 09:26:34;;;;;;;39.08;11.68;;;;;;;;;;6287647;22;20004;-82
2022/01/30 09:29:00;;;;;;;66.10;20.50;;;;;;;;;;6263151;22;20016;-82
2022/01/30 09:31:25;;;;;;;37.95;11.80;;;;;;;;;;6233287;22;20023;-83
2022/01/30 09:33:52;;;;;;;36.25;11.80;;;;;;;;;;6283791;22;20032;-82
2022/01/30 09:36:18;;;;;;;43.97;11.48;;;;;;;;;;6280180;22;20339;-83
2022/01/30 09:38:43;;;;;;;122.93;28.83;;;;;;;;;;6258100;22;20026;-81
2022/01/30 09:41:09;;;;;;;60.53;16.70;;;;;;;;;;6284694;22;20031;-83
2022/01/30 09:43:34;;;;;;;54.25;15.80;;;;;;;;;;6285531;22;19996;-83
2022/01/30 09:46:00;;;;;;;47.88;14.40;;;;;;;;;;6285425;22;20011;-83
2022/01/30 09:48:25;;;;;;;38.95;13.40;;;;;;;;;;6286170;22;20006;-84
2022/01/30 09:50:51;;;;;;;46.92;13.65;;;;;;;;;;6282313;22;20351;-83
2022/01/30 09:53:17;;;;;;;46.08;14.15;;;;;;;;;;6277538;22;20053;-82
2022/01/30 09:55:42;;;;;;;36.45;11.52;;;;;;;;;;6251854;22;20004;-83
2022/01/30 09:58:08;;;;;;;30.45;8.90;;;;;;;;;;6277374;22;20338;-83
2022/01/30 10:00:34;;;;;;;34.08;11.82;;;;;;;;;;6274889;22;20039;-82
2022/01/30 10:02:59;;;;;;;23.40;9.45;;;;;;;;;;6249130;22;20006;-81
2022/01/30 10:05:26;;;;;;;33.20;8.93;;;;;;;;;;6278754;22;20012;-82
2022/01/30 10:07:55;;;;;;;27.42;7.65;;;;;;;;;;6229560;22;20007;-81
2022/01/30 10:10:23;;;;;;;20.10;7.45;;;;;;;;;;6288834;22;20004;-81
2022/01/30 10:13:11;;;;;;;26.25;7.53;;;;;;;;;;6250648;22;20094;-81
2022/01/30 10:15:56;;;;;;;13.27;4.93;;;;;;;;;;6276908;22;20087;-82
2022/01/30 10:18:26;;;;;;;30.13;7.50;;;;;;;;;;6277552;22;20382;-83
2022/01/30 10:20:52;;;;;;;24.85;7.38;;;;;;;;;;6274446;22;20034;-81
2022/01/30 10:23:17;;;;;;;19.27;5.63;;;;;;;;;;6276749;22;20423;-81
2022/01/30 10:25:51;;;;;;;22.80;7.65;;;;;;;;;;6275458;22;20450;-81
2022/01/30 10:28:26;;;;;;;18.98;5.18;;;;;;;;;;6285065;22;19995;-81
2022/01/30 10:30:56;;;;;;;17.02;6.80;;;;;;;;;;6245729;22;20023;-83
2022/01/30 10:33:42;;;;;;;13.80;5.30;;;;;;;;;;6278285;22;20050;-82
2022/01/30 10:36:09;;;;;;;18.88;6.80;;;;;;;;;;6279469;22;20008;-82
2022/01/30 10:38:40;;;;;;;19.77;6.13;;;;;;;;;;6251000;22;20010;-82
2022/01/30 10:41:15;;;;;;;17.27;6.60;;;;;;;;;;6274872;22;20003;-82
2022/01/30 10:44:00;;;;;;;27.63;7.05;;;;;;;;;;6278571;22;20023;-81
2022/01/30 10:46:32;;;;;;;15.65;6.70;;;;;;;;;;6253874;22;20090;-81
2022/01/30 10:48:59;;;;;;;21.45;8.40;;;;;;;;;;6250530;22;20359;-81
2022/01/30 10:51:26;;;;;;;15.82;6.55;;;;;;;;;;6226273;22;20014;-82
2022/01/30 10:53:52;;;;;;;22.00;7.07;;;;;;;;;;6254787;22;20000;-80
2022/01/30 10:56:24;;;;;;;21.00;8.10;;;;;;;;;;6251700;22;20003;-84
2022/01/30 10:59:08;;;;;;;21.15;7.70;;;;;;;;;;6277466;22;20004;-83
2022/01/30 11:01:34;;;;;;;27.25;8.18;;;;;;;;;;6275259;22;20086;-80
2022/01/30 11:04:02;;;;;;;16.77;6.55;;;;;;;;;;6250338;22;20011;-83
2022/01/30 11:06:28;;;;;;;15.80;5.90;;;;;;;;;;6277178;22;20076;-81
2022/01/30 11:08:54;;;;;;;21.73;6.65;;;;;;;;;;6255279;22;20011;-81
2022/01/30 11:11:36;;;;;;;15.93;5.93;;;;;;;;;;6231086;22;20007;-81
2022/01/30 11:14:24;;;;;;;22.10;6.40;;;;;;;;;;6240548;22;20012;-80
2022/01/30 11:17:03;;;;;;;14.98;5.45;;;;;;;;;;6261927;22;20003;-80
2022/01/30 11:19:39;;;;;;;15.27;5.65;;;;;;;;;;6273961;22;20437;-81
2022/01/30 11:22:15;;;;;;;18.17;7.47;;;;;;;;;;6250102;22;20012;-81
2022/01/30 11:24:45;;;;;;;15.75;6.88;;;;;;;;;;6225631;22;20038;-81
2022/01/30 11:27:11;;;;;;;;;;;;;;;;;;6276644;22;20015;-81
2022/01/30 11:29:37;;;;;;;16.25;7.03;;;;;;;;;;6277586;22;19903;-83
2022/01/30 11:32:06;;;;;;;27.25;9.70;;;;;;;;;;6229877;22;20004;-81
2022/01/30 11:34:36;;;;;;;19.63;6.57;;;;;;;;;;6251744;22;20054;-82
2022/01/30 11:37:02;;;;;;;20.30;7.68;;;;;;;;;;6256468;22;20027;-81
2022/01/30 11:39:27;;;;;;;17.50;6.03;;;;;;;;;;6225545;22;20010;-85
2022/01/30 11:42:09;;;;;;;12.15;4.95;;;;;;;;;;6251953;22;19996;-83
2022/01/30 11:44:35;;;;;;;15.30;5.68;;;;;;;;;;6279052;22;20007;-82
2022/01/30 11:47:04;;;;;;;20.02;7.00;;;;;;;;;;6278449;22;20300;-81
2022/01/30 11:49:55;;;;;;;21.13;7.40;;;;;;;;;;6281533;22;20026;-83
2022/01/30 11:52:20;;;;;;;20.30;7.65;;;;;;;;;;6277466;22;20031;-83
2022/01/30 11:54:53;;;;;;;23.83;6.80;;;;;;;;;;6283457;22;20003;-81
2022/01/30 11:57:41;;;;;;;23.88;6.78;;;;;;;;;;6285769;22;20000;-81
2022/01/30 12:00:10;;;;;;;20.90;7.28;;;;;;;;;;6289677;22;20427;-83
2022/01/30 12:02:36;;;;;;;17.05;6.22;;;;;;;;;;6277381;22;20038;-82
2022/01/30 12:05:02;;;;;;;12.68;5.60;;;;;;;;;;6278342;22;20326;-82
2022/01/30 12:07:41;;;;;;;15.95;5.82;;;;;;;;;;6277984;22;20383;-83
2022/01/30 12:10:16;;;;;;;13.35;5.95;;;;;;;;;;6276678;22;20007;-82
2022/01/30 12:13:07;;;;;;;23.17;5.75;;;;;;;;;;6277015;22;20061;-82
2022/01/30 12:15:42;;;;;;;16.67;6.93;;;;;;;;;;6276544;22;19999;-80
2022/01/30 12:18:11;;;;;;;22.58;5.13;;;;;;;;;;6275606;22;20032;-82
2022/01/30 12:21:14;;;;;;;21.52;6.35;;;;;;;;;;6282829;22;20023;-83
2022/01/30 12:23:40;;;;;;;34.50;7.60;;;;;;;;;;6277139;22;20004;-83
2022/01/30 12:26:08;;;;;;;21.73;6.72;;;;;;;;;;6251834;22;20008;-82
2022/01/30 12:28:53;;;;;;;16.27;5.93;;;;;;;;;;6275828;22;20034;-82
2022/01/30 12:31:35;;;;;;;20.65;5.90;;;;;;;;;;6252445;22;20023;-81
2022/01/30 12:34:02;;;;;;;24.52;8.15;;;;;;;;;;6276506;22;20031;-83
2022/01/30 12:36:27;;;;;;;20.98;7.57;;;;;;;;;;6275927;22;20004;-84
2022/01/30 12:38:55;;;;;;;31.65;10.57;;;;;;;;;;6275672;22;20054;-83
2022/01/30 12:41:22;;;;;;;29.45;10.48;;;;;;;;;;6279972;22;20706;-84
2022/01/30 12:43:52;;;;;;;21.67;6.80;;;;;;;;;;6280312;22;20068;-84
2022/01/30 12:46:17;;;;;;;25.23;8.90;;;;;;;;;;6276249;22;20037;-85
2022/01/30 12:48:47;;;;;;;24.55;8.20;;;;;;;;;;6225714;22;20000;-83
2022/01/30 12:51:14;;;;;;;41.80;9.00;;;;;;;;;;6250769;22;20014;-80
2022/01/30 12:53:41;;;;;;;42.50;8.68;;;;;;;;;;6275198;22;20003;-81
2022/01/30 12:56:07;;;;;;;30.23;6.88;;;;;;;;;;6274981;22;20415;-84
2022/01/30 12:58:34;;;;;;;31.80;7.47;;;;;;;;;;6277762;22;20354;-82
2022/01/30 13:01:08;;;;;;;25.38;6.60;;;;;;;;;;6251958;22;20010;-83
2022/01/30 13:03:33;;;;;;;17.92;6.13;;;;;;;;;;6281455;22;20011;-80
2022/01/30 13:06:00;;;;;;;18.08;5.75;;;;;;;;;;6282027;22;20004;-82
2022/01/30 13:08:45;;;;;;;23.27;7.47;;;;;;;;;;6277153;22;20085;-83
2022/01/30 13:11:23;;;;;;;24.25;7.03;;;;;;;;;;6276505;22;20378;-79
2022/01/30 13:14:00;;;;;;;24.10;6.25;;;;;;;;;;6275947;22;20442;-80
2022/01/30 13:16:31;;;;;;;42.67;8.70;;;;;;;;;;6251656;22;20423;-80
2022/01/30 13:18:56;;;;;;;26.48;6.53;;;;;;;;;;6275697;22;20019;-79
2022/01/30 13:21:23;;;;;;;148.70;24.90;;;;;;;;;;6250430;22;20449;-79
2022/01/30 13:23:49;;;;;;;97.57;16.88;;;;;;;;;;6297178;22;20015;-80
2022/01/30 13:26:34;;;;;;;83.45;12.88;;;;;;;;;;6234050;22;20000;-79
2022/01/30 13:29:01;;;;;;;34.40;7.53;;;;;;;;;;6284057;22;20006;-84
2022/01/30 13:31:26;;;;;;;30.80;7.47;;;;;;;;;;6251777;22;20037;-81
2022/01/30 13:34:15;;;;;;;36.03;6.93;;;;;;;;;;6250154;22;20011;-83
2022/01/30 13:36:41;;;;;;;61.75;11.95;;;;;;;;;;6274863;22;19995;-81
2022/01/30 13:39:13;;;;;;;40.80;9.23;;;;;;;;;;6252136;22;20035;-82
2022/01/30 13:41:59;;;;;;;49.05;11.65;;;;;;;;;;6275557;22;20003;-82
2022/01/30 13:44:26;;;;;;;37.17;11.40;;;;;;;;;;6278662;22;20003;-83
2022/01/30 13:47:03;;;;;;;28.92;10.63;;;;;;;;;;6253003;22;19996;-83
2022/01/30 13:49:29;;;;;;;34.85;11.55;;;;;;;;;;6280137;22;20488;-82
2022/01/30 13:52:07;;;;;;;28.52;10.30;;;;;;;;;;6275922;22;20023;-80
2022/01/30 13:54:33;;;;;;;37.35;12.30;;;;;;;;;;6252405;22;20000;-80
2022/01/30 13:57:09;;;;;;;35.75;12.25;;;;;;;;;;6275184;22;20019;-84
2022/01/30 13:59:35;;;;;;;39.42;12.73;;;;;;;;;;6250890;22;20000;-81
2022/01/30 14:02:03;;;;;;;32.00;12.63;;;;;;;;;;6250550;22;20494;-81
2022/01/30 14:04:33;;;;;;;31.02;11.40;;;;;;;;;;6279629;22;20004;-81
2022/01/30 14:07:00;;;;;;;24.65;10.30;;;;;;;;;;6276906;22;19995;-81
2022/01/30 14:09:38;;;;;;;27.40;9.85;;;;;;;;;;6225244;22;20007;-80
2022/01/30 14:12:06;;;;;;;28.77;11.13;;;;;;;;;;6241044;22;20014;-81
2022/01/30 14:14:35;;;;;;;32.53;11.20;;;;;;;;;;6274462;22;20462;-80
2022/01/30 14:17:01;;;;;;;24.20;8.52;;;;;;;;;;6274716;22;20004;-81
2022/01/30 14:19:37;;;;;;;27.20;11.25;;;;;;;;;;6274784;22;19999;-81
2022/01/30 14:22:21;;;;;;;39.05;13.88;;;;;;;;;;6276884;22;20007;-82
2022/01/30 14:24:47;;;;;;;40.35;13.15;;;;;;;;;;6250136;22;20007;-81
2022/01/30 14:27:13;;;;;;;33.03;13.43;;;;;;;;;;6277546;22;20392;-81
2022/01/30 14:29:39;;;;;;;37.80;13.98;;;;;;;;;;6275133;22;20089;-81
2022/01/30 14:32:22;;;;;;;29.00;10.88;;;;;;;;;;6232509;22;20067;-80
2022/01/30 14:34:51;;;;;;;39.13;12.90;;;;;;;;;;6246463;22;20007;-81
2022/01/30 14:37:17;;;;;;;43.67;14.90;;;;;;;;;;6278744;22;20024;-80
2022/01/30 14:39:43;;;;;;;37.33;12.77;;;;;;;;;;6275458;22;20030;-81
2022/01/30 14:42:10;;;;;;;41.30;14.95;;;;;;;;;;6276409;22;20441;-81
2022/01/30 14:44:37;;;;;;;39.83;13.73;;;;;;;;;;6274446;22;20346;-80
2022/01/30 14:47:03;;;;;;;35.38;10.93;;;;;;;;;;6276061;22;20007;-81
2022/01/30 14:49:29;;;;;;;40.60;12.35;;;;;;;;;;6274248;22;19999;-81
2022/01/30 14:51:55;;;;;;;29.08;10.30;;;;;;;;;;6277898;22;20008;-81
2022/01/30 14:54:20;;;;;;;29.27;10.48;;;;;;;;;;6282165;22;20007;-80
2022/01/30 14:56:46;;;;;;;33.47;10.25;;;;;;;;;;6279373;22;20431;-82
2022/01/30 14:59:11;;;;;;;30.08;8.65;;;;;;;;;;6275392;22;19996;-82
2022/01/30 15:01:37;;;;;;;30.15;10.15;;;;;;;;;;6275806;22;19999;-82
2022/01/30 15:04:02;;;;;;;50.00;13.65;;;;;;;;;;6275297;22;20329;-81
2022/01/30 15:06:28;;;;;;;36.83;13.02;;;;;;;;;;6275369;22;20003;-81
2022/01/30 15:08:53;;;;;;;54.03;18.02;;;;;;;;;;6275035;22;20348;-81
2022/01/30 15:11:18;;;;;;;39.47;12.85;;;;;;;;;;6276513;22;20000;-82
2022/01/30 15:13:46;;;;;;;47.97;14.57;;;;;;;;;;6273991;22;20395;-81
2022/01/30 15:16:19;;;;;;;59.60;16.60;;;;;;;;;;6252538;22;19999;-79
2022/01/30 15:18:45;;;;;;;49.67;14.40;;;;;;;;;;6224200;23;20433;-81
2022/01/30 15:21:11;;;;;;;38.90;14.52;;;;;;;;;;6244705;23;20010;-83
2022/01/30 15:23:36;;;;;;;42.42;14.25;;;;;;;;;;6249149;22;20424;-83
2022/01/30 15:26:02;;;;;;;37.75;12.48;;;;;;;;;;6221179;23;20015;-83
2022/01/30 15:28:27;;;;;;;52.45;14.95;;;;;;;;;;6245922;22;20034;-81